createdAt,value
2022-12-19T00:01:16.398Z,-1.00
2022-12-19T00:03:43.858Z,-1.04
2022-12-19T00:06:10.330Z,-0.97
2022-12-19T00:08:36.806Z,-0.81
2022-12-19T00:11:03.342Z,-0.72
2022-12-19T00:13:31.781Z,-0.80
2022-12-19T00:16:04.240Z,-0.84
2022-12-19T00:18:30.770Z,-0.79
2022-12-19T00:21:00.845Z,-0.70
2022-12-19T00:23:27.832Z,-0.68
2022-12-19T00:25:54.329Z,-0.72
2022-12-19T00:28:21.955Z,-0.72
2022-12-19T00:30:48.593Z,-0.70
2022-12-19T00:33:15.096Z,-0.79
2022-12-19T00:35:41.575Z,-0.73
2022-12-19T00:38:10.431Z,-0.74
2022-12-19T00:40:36.894Z,-0.83
2022-12-19T00:43:03.430Z,-0.57
2022-12-19T00:45:29.978Z,-0.59
2022-12-19T00:47:57.005Z,-0.62
2022-12-19T00:50:23.653Z,-0.59
2022-12-19T00:52:50.217Z,-0.66
2022-12-19T00:55:19.499Z,-0.53
2022-12-19T00:57:46.602Z,-0.48
2022-12-19T01:00:13.391Z,-0.53
2022-12-19T01:02:40.089Z,-0.60
2022-12-19T01:05:06.813Z,-0.52
2022-12-19T01:07:33.305Z,-0.41
2022-12-19T01:10:00.587Z,-0.53
2022-12-19T01:12:46.408Z,-0.49
2022-12-19T01:15:14.333Z,-0.52
2022-12-19T01:17:44.720Z,-0.42
2022-12-19T01:20:12.375Z,-0.35
2022-12-19T01:22:38.873Z,-0.40
2022-12-19T01:25:05.733Z,-0.32
2022-12-19T01:27:32.264Z,-0.24
2022-12-19T01:29:58.813Z,-0.25
2022-12-19T01:32:25.373Z,-0.22
2022-12-19T01:34:51.895Z,-0.11
2022-12-19T01:37:18.623Z,-0.11
2022-12-19T01:39:46.085Z,-0.09
2022-12-19T01:42:19.540Z,-0.11
2022-12-19T01:45:08.186Z,-0.06
2022-12-19T01:47:43.649Z,-0.05
2022-12-19T01:50:12.467Z,-0.19
2022-12-19T01:52:38.981Z,-0.12
2022-12-19T01:55:05.684Z,-0.24
2022-12-19T01:57:32.142Z,-0.09
2022-12-19T02:00:01.023Z,-0.19
2022-12-19T02:02:34.434Z,-0.18
2022-12-19T02:05:03.941Z,-0.17
2022-12-19T02:07:30.460Z,-0.01
2022-12-19T02:09:58.126Z,0.02
2022-12-19T02:12:34.187Z,0.07
2022-12-19T02:15:02.958Z,0.00
2022-12-19T02:17:35.059Z,0.14
2022-12-19T02:20:10.928Z,0.23
2022-12-19T02:22:40.648Z,0.25
2022-12-19T02:25:26.150Z,0.21
2022-12-19T02:28:01.864Z,0.29
2022-12-19T02:30:35.977Z,0.25
2022-12-19T02:33:22.989Z,0.25
2022-12-19T02:36:08.617Z,0.29
2022-12-19T02:38:41.758Z,0.22
2022-12-19T02:41:10.143Z,0.32
2022-12-19T02:43:39.199Z,0.21
2022-12-19T02:46:06.404Z,0.17
2022-12-19T02:48:34.883Z,0.03
2022-12-19T02:51:03.731Z,0.17
2022-12-19T02:53:32.001Z,0.19
2022-12-19T02:56:05.588Z,0.14
2022-12-19T02:58:41.645Z,0.04
2022-12-19T03:01:15.024Z,0.19
2022-12-19T03:03:46.969Z,0.25
2022-12-19T03:06:20.679Z,0.10
2022-12-19T03:08:47.744Z,0.13
2022-12-19T03:11:14.912Z,0.15
2022-12-19T03:13:56.804Z,0.07
2022-12-19T03:16:23.732Z,0.24
2022-12-19T03:18:50.426Z,0.19
2022-12-19T03:21:29.859Z,0.30
2022-12-19T03:23:56.639Z,0.19
2022-12-19T03:26:24.256Z,0.26
2022-12-19T03:28:58.793Z,0.26
2022-12-19T03:31:26.810Z,0.29
2022-12-19T03:34:06.732Z,0.27
2022-12-19T03:36:36.370Z,0.26
2022-12-19T03:39:03.397Z,0.27
2022-12-19T03:41:48.853Z,0.29
2022-12-19T03:44:15.621Z,0.21
2022-12-19T03:46:43.464Z,0.30
2022-12-19T03:49:10.072Z,0.30
2022-12-19T03:51:47.530Z,0.27
2022-12-19T03:54:18.478Z,0.24
2022-12-19T03:56:53.132Z,0.37
2022-12-19T03:59:32.206Z,0.40
2022-12-19T04:01:58.796Z,0.44
2022-12-19T04:04:25.892Z,0.44
2022-12-19T04:06:52.477Z,0.40
2022-12-19T04:09:22.410Z,0.50
2022-12-19T04:11:50.779Z,0.47
2022-12-19T04:14:18.578Z,0.58
2022-12-19T04:16:46.733Z,0.45
2022-12-19T04:19:29.744Z,0.53
2022-12-19T04:21:57.760Z,0.43
2022-12-19T04:24:26.084Z,0.36
2022-12-19T04:26:52.761Z,0.30
2022-12-19T04:29:19.348Z,0.40
2022-12-19T04:31:45.994Z,0.26
2022-12-19T04:34:12.612Z,0.29
2022-12-19T04:36:39.158Z,0.42
2022-12-19T04:39:05.970Z,0.63
2022-12-19T04:41:32.450Z,0.48
2022-12-19T04:43:58.971Z,0.44
2022-12-19T04:46:25.511Z,0.47
2022-12-19T04:48:52.078Z,0.43
2022-12-19T04:51:18.558Z,0.58
2022-12-19T04:53:45.195Z,0.42
2022-12-19T04:56:11.848Z,0.49
2022-12-19T04:58:38.393Z,0.58
2022-12-19T05:01:05.756Z,0.60
2022-12-19T05:03:32.696Z,0.72
2022-12-19T05:06:12.228Z,0.73
2022-12-19T05:08:39.547Z,0.69
2022-12-19T05:11:06.617Z,0.64
2022-12-19T05:13:33.124Z,0.53
2022-12-19T05:16:00.296Z,0.61
2022-12-19T05:18:26.845Z,0.59
2022-12-19T05:20:53.532Z,0.73
2022-12-19T05:23:20.219Z,0.77
2022-12-19T05:25:46.717Z,0.76
2022-12-19T05:28:13.795Z,0.93
2022-12-19T05:30:40.354Z,0.88
2022-12-19T05:33:06.907Z,0.94
2022-12-19T05:35:33.780Z,1.11
2022-12-19T05:38:00.527Z,1.08
2022-12-19T05:40:27.163Z,0.96
2022-12-19T05:42:53.667Z,1.18
2022-12-19T05:45:20.165Z,1.18
2022-12-19T05:47:46.811Z,1.14
2022-12-19T05:50:13.985Z,0.98
2022-12-19T05:52:40.687Z,1.02
2022-12-19T05:55:07.757Z,1.04
2022-12-19T05:57:38.014Z,1.14
2022-12-19T06:00:05.052Z,1.13
2022-12-19T06:02:38.991Z,1.15
2022-12-19T06:05:05.837Z,1.12
2022-12-19T06:07:32.360Z,1.11
2022-12-19T06:09:59.962Z,1.31
2022-12-19T06:12:26.613Z,1.46
2022-12-19T06:14:53.126Z,1.36
2022-12-19T06:17:19.659Z,1.35
2022-12-19T06:19:46.341Z,1.47
2022-12-19T06:22:12.862Z,1.28
2022-12-19T06:24:39.352Z,1.42
2022-12-19T06:27:05.887Z,1.39
2022-12-19T06:29:32.371Z,1.50
2022-12-19T06:31:58.986Z,1.47
2022-12-19T06:34:55.217Z,1.48
2022-12-19T06:37:12.621Z,1.44
2022-12-19T06:39:39.105Z,1.51
2022-12-19T06:42:24.127Z,1.63
2022-12-19T06:44:56.022Z,1.63
2022-12-19T06:47:23.195Z,1.44
2022-12-19T06:49:50.270Z,1.56
2022-12-19T06:52:16.953Z,1.53
2022-12-19T06:54:43.466Z,1.60
2022-12-19T06:57:09.993Z,1.51
2022-12-19T06:59:36.523Z,1.72
2022-12-19T07:02:06.552Z,1.68
2022-12-19T07:04:34.358Z,1.74
2022-12-19T07:07:01.059Z,1.81
2022-12-19T07:09:28.040Z,1.71
2022-12-19T07:11:54.566Z,1.65
2022-12-19T07:14:21.075Z,1.57
2022-12-19T07:16:47.648Z,1.61
2022-12-19T07:19:14.241Z,1.60
2022-12-19T07:21:40.735Z,1.58
2022-12-19T07:24:07.634Z,1.54
2022-12-19T07:26:35.937Z,1.62
2022-12-19T07:29:03.000Z,1.58
2022-12-19T07:31:29.497Z,1.54
2022-12-19T07:33:56.055Z,1.65
2022-12-19T07:36:22.533Z,1.67
2022-12-19T07:38:49.879Z,1.70
2022-12-19T07:41:16.734Z,1.82
2022-12-19T07:43:43.255Z,1.67
2022-12-19T07:46:09.870Z,1.78
2022-12-19T07:48:36.430Z,1.85
2022-12-19T07:51:05.424Z,1.85
2022-12-19T07:53:32.063Z,2.09
2022-12-19T07:55:58.557Z,2.04
2022-12-19T07:58:25.068Z,1.97
2022-12-19T08:00:57.787Z,1.96
2022-12-19T08:03:24.619Z,2.05
2022-12-19T08:05:51.199Z,2.23
2022-12-19T08:08:17.765Z,2.22
2022-12-19T08:10:44.282Z,2.29
2022-12-19T08:13:10.779Z,2.37
2022-12-19T08:15:37.252Z,2.48
2022-12-19T08:18:04.213Z,2.47
2022-12-19T08:20:30.703Z,2.46
2022-12-19T08:22:57.202Z,2.40
2022-12-19T08:25:23.684Z,2.48
2022-12-19T08:27:50.209Z,2.49
2022-12-19T08:30:16.744Z,2.51
2022-12-19T08:32:44.940Z,2.61
2022-12-19T08:35:11.613Z,2.50
2022-12-19T08:37:38.750Z,2.49
2022-12-19T08:40:05.468Z,2.60
2022-12-19T08:42:33.613Z,2.63
2022-12-19T08:45:00.191Z,2.70
2022-12-19T08:47:26.791Z,2.83
2022-12-19T08:49:53.304Z,2.89
2022-12-19T08:52:19.771Z,3.11
2022-12-19T08:54:46.239Z,3.04
2022-12-19T08:57:12.883Z,3.33
2022-12-19T08:59:39.615Z,3.22
2022-12-19T09:02:07.428Z,3.30
2022-12-19T09:05:59.913Z,3.09
2022-12-19T09:07:20.458Z,3.23
2022-12-19T09:09:46.974Z,3.22
2022-12-19T09:12:13.780Z,3.21
2022-12-19T09:14:40.254Z,3.14
2022-12-19T09:17:06.851Z,3.11
2022-12-19T09:19:33.488Z,3.26
2022-12-19T09:22:00.027Z,3.35
2022-12-19T09:24:26.518Z,3.39
2022-12-19T09:26:53.139Z,3.39
2022-12-19T09:29:21.739Z,3.41
2022-12-19T09:31:53.885Z,3.52
2022-12-19T09:34:36.809Z,3.58
2022-12-19T09:37:08.762Z,3.63
2022-12-19T09:39:36.256Z,3.67
2022-12-19T09:42:14.876Z,3.40
2022-12-19T09:44:47.117Z,3.35
2022-12-19T09:47:14.734Z,3.45
2022-12-19T09:49:43.428Z,3.57
2022-12-19T09:52:21.286Z,3.66
2022-12-19T09:55:06.518Z,3.84
2022-12-19T09:57:36.502Z,3.84
2022-12-19T10:00:05.247Z,3.93
2022-12-19T10:02:47.680Z,3.93
2022-12-19T10:05:32.997Z,4.25
2022-12-19T10:08:09.727Z,4.38
2022-12-19T10:12:47.330Z,4.52
2022-12-19T10:13:53.957Z,4.65
2022-12-19T10:16:40.755Z,4.65
2022-12-19T10:19:08.370Z,4.26
2022-12-19T10:22:18.371Z,4.34
2022-12-19T10:25:08.796Z,4.38
2022-12-19T10:27:59.446Z,4.22
2022-12-19T10:30:29.088Z,4.40
2022-12-19T10:33:13.593Z,4.44
2022-12-19T10:35:49.408Z,4.75
2022-12-19T10:38:36.709Z,4.86
2022-12-19T10:41:11.878Z,4.88
2022-12-19T10:43:47.413Z,5.00
2022-12-19T10:46:17.299Z,5.10
2022-12-19T10:48:43.847Z,5.32
2022-12-19T10:51:14.042Z,5.39
2022-12-19T10:53:40.594Z,5.42
2022-12-19T10:56:18.852Z,5.21
2022-12-19T10:58:45.767Z,5.17
2022-12-19T11:01:13.728Z,5.16
2022-12-19T11:03:41.958Z,5.11
2022-12-19T11:06:29.344Z,5.00
2022-12-19T11:08:58.421Z,5.11
2022-12-19T11:13:32.271Z,5.09
2022-12-19T11:18:41.522Z,5.12
2022-12-19T11:23:20.795Z,5.38
2022-12-19T11:23:42.767Z,5.28
2022-12-19T11:29:27.404Z,5.25
2022-12-19T11:29:31.094Z,5.28
2022-12-19T11:29:33.110Z,5.38
2022-12-19T11:34:31.508Z,5.26
2022-12-19T11:37:16.846Z,5.42
2022-12-19T11:39:48.485Z,5.36
2022-12-19T11:42:23.255Z,5.42
2022-12-19T11:45:09.996Z,5.33
2022-12-19T11:47:44.431Z,5.36
2022-12-19T11:50:13.951Z,5.50
2022-12-19T11:53:09.437Z,5.65
2022-12-19T11:55:51.341Z,5.90
2022-12-19T11:58:17.831Z,6.03
2022-12-19T12:00:47.004Z,6.19
2022-12-19T12:03:30.537Z,6.23
2022-12-19T12:05:58.537Z,6.32
2022-12-19T12:10:07.612Z,6.47
2022-12-19T12:17:58.454Z,6.22
2022-12-19T12:23:46.667Z,6.23
2022-12-19T12:30:41.674Z,6.23
2022-12-19T12:31:08.219Z,6.26
2022-12-19T12:31:26.255Z,6.26
2022-12-19T12:31:39.615Z,6.31
2022-12-19T12:32:00.979Z,6.19
2022-12-19T12:35:32.826Z,6.30
2022-12-19T12:40:24.243Z,6.28
2022-12-19T12:42:53.570Z,6.31
2022-12-19T12:45:22.330Z,6.38
2022-12-19T12:47:49.946Z,6.37
2022-12-19T12:50:17.355Z,6.44
2022-12-19T12:52:45.886Z,6.46
2022-12-19T12:55:14.904Z,6.37
2022-12-19T12:57:44.382Z,6.24
2022-12-19T13:00:22.753Z,6.27
2022-12-19T13:03:01.365Z,6.23
2022-12-19T13:05:51.921Z,6.13
2022-12-19T13:08:25.221Z,6.06
2022-12-19T13:10:57.823Z,6.00
2022-12-19T13:13:43.321Z,6.12
2022-12-19T13:16:28.460Z,6.31
2022-12-19T13:19:27.826Z,6.34
2022-12-19T13:22:04.893Z,6.25
2022-12-19T13:24:41.074Z,6.22
2022-12-19T13:27:43.569Z,6.12
2022-12-19T13:30:14.809Z,5.96
2022-12-19T13:32:41.278Z,5.91
2022-12-19T13:36:05.195Z,5.79
2022-12-19T13:39:57.478Z,5.71
2022-12-19T13:41:00.487Z,5.64
2022-12-19T13:43:47.749Z,5.54
2022-12-19T13:46:29.647Z,5.55
2022-12-19T13:49:03.230Z,5.50
2022-12-19T13:51:40.168Z,5.40
2022-12-19T13:54:15.067Z,5.38
2022-12-19T13:56:41.585Z,5.34
2022-12-19T13:59:09.425Z,5.41
2022-12-19T14:01:36.346Z,5.35
2022-12-19T14:04:08.777Z,5.21
2022-12-19T14:06:40.013Z,5.13
2022-12-19T14:09:41.506Z,5.13
2022-12-19T14:13:43.131Z,5.04
2022-12-19T14:15:14.089Z,5.05
2022-12-19T14:17:40.958Z,5.07
2022-12-19T14:22:03.625Z,5.02
2022-12-19T14:23:42.870Z,4.98
2022-12-19T14:28:18.524Z,4.87
2022-12-19T14:30:26.538Z,4.84
2022-12-19T14:33:44.503Z,4.72
2022-12-19T14:36:07.173Z,4.64
2022-12-19T14:39:21.976Z,4.69
2022-12-19T14:41:07.823Z,4.54
2022-12-19T14:43:58.959Z,4.70
2022-12-19T14:53:51.853Z,4.74
2022-12-19T14:54:14.415Z,4.82
2022-12-19T14:54:22.848Z,4.99
2022-12-19T14:56:09.323Z,4.83
2022-12-19T14:58:56.130Z,4.66
2022-12-19T15:01:09.001Z,4.72
2022-12-19T15:03:39.779Z,4.71
2022-12-19T15:07:05.382Z,4.79
2022-12-19T15:10:59.733Z,4.85
2022-12-19T15:14:48.756Z,4.64
2022-12-19T15:15:02.268Z,4.61
2022-12-19T15:17:28.884Z,4.48
2022-12-19T15:19:58.585Z,4.51
2022-12-19T15:22:25.133Z,4.71
2022-12-19T15:24:52.005Z,4.56
2022-12-19T15:27:18.834Z,4.44
2022-12-19T15:29:45.493Z,4.42
2022-12-19T15:32:16.012Z,4.54
2022-12-19T15:35:01.043Z,4.61
2022-12-19T15:37:35.384Z,4.49
2022-12-19T15:40:02.250Z,4.36
2022-12-19T15:42:28.816Z,4.20
2022-12-19T15:44:59.931Z,4.22
2022-12-19T15:47:33.518Z,4.25
2022-12-19T15:50:02.796Z,4.20
2022-12-19T15:52:29.651Z,4.34
2022-12-19T15:54:58.732Z,4.36
2022-12-19T15:57:29.883Z,4.20
2022-12-19T15:59:56.756Z,4.23
2022-12-19T16:02:42.783Z,4.37
2022-12-19T16:05:13.895Z,4.28
2022-12-19T16:07:40.525Z,4.39
2022-12-19T16:10:07.398Z,4.33
2022-12-19T16:12:35.583Z,4.35
2022-12-19T16:15:02.580Z,4.39
2022-12-19T16:17:29.430Z,4.37
2022-12-19T16:19:55.975Z,4.25
2022-12-19T16:22:23.443Z,4.20
2022-12-19T16:24:53.375Z,4.07
2022-12-19T16:27:22.275Z,4.09
2022-12-19T16:29:48.777Z,4.09
2022-12-19T16:32:15.545Z,4.18
2022-12-19T16:34:42.168Z,4.16
2022-12-19T16:37:08.764Z,4.01
2022-12-19T16:39:35.411Z,3.91
2022-12-19T16:42:03.188Z,4.03
2022-12-19T16:44:30.402Z,4.09
2022-12-19T16:46:56.885Z,4.12
2022-12-19T16:49:23.590Z,4.23
2022-12-19T16:51:50.717Z,4.14
2022-12-19T16:54:17.649Z,4.07
2022-12-19T16:56:46.128Z,3.86
2022-12-19T16:59:20.313Z,3.82
2022-12-19T17:01:47.268Z,3.85
2022-12-19T17:04:17.952Z,3.86
2022-12-19T17:06:44.547Z,3.96
2022-12-19T17:09:17.989Z,4.06
2022-12-19T17:11:45.711Z,4.01
2022-12-19T17:14:16.851Z,4.11
2022-12-19T17:16:43.478Z,4.10
2022-12-19T17:19:43.182Z,4.01
2022-12-19T17:22:11.481Z,4.01
2022-12-19T17:24:38.131Z,3.99
2022-12-19T17:27:04.735Z,3.99
2022-12-19T17:29:31.886Z,4.00
2022-12-19T17:31:58.437Z,4.14
2022-12-19T17:34:34.343Z,4.14
2022-12-19T17:37:01.426Z,4.11
2022-12-19T17:39:29.177Z,4.09
2022-12-19T17:41:56.463Z,4.15
2022-12-19T17:44:23.122Z,4.15
2022-12-19T17:46:49.664Z,4.08
2022-12-19T17:49:17.012Z,3.95
2022-12-19T17:51:45.509Z,3.93
2022-12-19T17:54:12.453Z,4.02
2022-12-19T17:56:38.935Z,3.89
2022-12-19T17:59:05.539Z,3.81
2022-12-19T18:01:32.212Z,3.82
2022-12-19T18:03:59.079Z,3.74
2022-12-19T18:06:25.635Z,3.92
2022-12-19T18:08:52.142Z,3.83
2022-12-19T18:11:19.539Z,3.76
2022-12-19T18:13:46.122Z,3.62
2022-12-19T18:16:13.458Z,3.51
2022-12-19T18:18:39.977Z,3.58
2022-12-19T18:21:06.771Z,3.57
2022-12-19T18:23:33.524Z,3.57
2022-12-19T18:26:02.371Z,3.65
2022-12-19T18:28:29.418Z,3.71
2022-12-19T18:30:58.577Z,3.73
2022-12-19T18:33:25.160Z,3.78
2022-12-19T18:35:51.644Z,3.87
2022-12-19T18:38:19.423Z,3.87
2022-12-19T18:40:46.143Z,3.87
2022-12-19T18:43:14.051Z,3.93
2022-12-19T18:45:41.709Z,3.91
2022-12-19T18:48:11.840Z,3.91
2022-12-19T18:50:38.416Z,3.80
2022-12-19T18:53:11.968Z,3.84
2022-12-19T18:55:38.449Z,3.74
2022-12-19T18:58:05.140Z,3.58
2022-12-19T19:00:31.609Z,3.60
2022-12-19T19:03:04.908Z,3.65
2022-12-19T19:05:32.508Z,3.59
2022-12-19T19:08:09.924Z,3.52
2022-12-19T19:10:36.424Z,3.55
2022-12-19T19:13:10.406Z,3.72
2022-12-19T19:15:38.272Z,3.71
2022-12-19T19:18:05.510Z,3.84
2022-12-19T19:20:34.124Z,3.88
2022-12-19T19:23:00.686Z,3.73
2022-12-19T19:25:27.175Z,3.68
2022-12-19T19:27:53.729Z,3.66
2022-12-19T19:30:20.215Z,3.63
2022-12-19T19:32:48.708Z,3.61
2022-12-19T19:35:16.150Z,3.70
2022-12-19T19:37:44.767Z,3.70
2022-12-19T19:40:12.125Z,3.67
2022-12-19T19:42:38.821Z,3.67
2022-12-19T19:45:05.934Z,3.41
2022-12-19T19:47:36.081Z,3.42
2022-12-19T19:50:02.884Z,3.40
2022-12-19T19:52:29.353Z,3.38
2022-12-19T19:54:55.845Z,3.43
2022-12-19T19:57:22.324Z,3.43
2022-12-19T19:59:48.855Z,3.47
2022-12-19T20:02:16.818Z,3.56
2022-12-19T20:04:43.691Z,3.48
2022-12-19T20:07:10.233Z,3.60
2022-12-19T20:09:36.739Z,3.63
2022-12-19T20:12:03.482Z,3.52
2022-12-19T20:14:29.965Z,3.52
2022-12-19T20:16:56.523Z,3.52
2022-12-19T20:19:23.072Z,3.68
2022-12-19T20:21:49.583Z,3.56
2022-12-19T20:24:16.094Z,3.54
2022-12-19T20:26:42.832Z,3.66
2022-12-19T20:29:11.504Z,3.69
2022-12-19T20:31:39.222Z,3.72
2022-12-19T20:34:05.742Z,3.77
2022-12-19T20:36:32.513Z,3.73
2022-12-19T20:39:02.205Z,3.77
2022-12-19T20:41:28.727Z,3.80
2022-12-19T20:43:55.457Z,3.82
2022-12-19T20:46:22.328Z,3.89
2022-12-19T20:48:49.221Z,3.93
2022-12-19T20:51:16.138Z,3.94
2022-12-19T20:53:42.855Z,4.00
2022-12-19T20:56:10.953Z,3.91
2022-12-19T20:58:37.847Z,3.94
2022-12-19T21:01:04.390Z,4.10
2022-12-19T21:03:31.116Z,4.09
2022-12-19T21:05:58.034Z,3.96
2022-12-19T21:08:24.898Z,3.88
2022-12-19T21:10:51.511Z,3.93
2022-12-19T21:13:18.031Z,4.02
2022-12-19T21:15:44.809Z,4.05
2022-12-19T21:18:11.364Z,3.95
2022-12-19T21:20:39.200Z,4.13
2022-12-19T21:23:05.952Z,4.01
2022-12-19T21:25:32.540Z,4.15
2022-12-19T21:27:59.076Z,4.12
2022-12-19T21:30:25.580Z,4.13
2022-12-19T21:32:52.224Z,4.10
2022-12-19T21:35:18.842Z,4.03
2022-12-19T21:37:51.904Z,3.96
2022-12-19T21:40:18.784Z,3.92
2022-12-19T21:42:45.405Z,3.92
2022-12-19T21:45:12.422Z,3.74
2022-12-19T21:47:40.134Z,3.73
2022-12-19T21:50:09.093Z,3.65
2022-12-19T21:52:46.314Z,3.69
2022-12-19T21:55:19.503Z,3.71
2022-12-19T21:57:46.110Z,3.73
2022-12-19T22:00:13.047Z,3.86
2022-12-19T22:02:41.363Z,3.87
2022-12-19T22:05:17.318Z,4.00
2022-12-19T22:07:43.814Z,4.02
2022-12-19T22:10:10.438Z,4.11
2022-12-19T22:12:37.014Z,4.12
2022-12-19T22:15:03.628Z,4.10
2022-12-19T22:17:30.126Z,4.07
2022-12-19T22:19:56.627Z,3.96
2022-12-19T22:22:24.524Z,3.95
2022-12-19T22:24:53.472Z,3.92
2022-12-19T22:27:19.980Z,3.83
2022-12-19T22:29:46.507Z,3.94
2022-12-19T22:32:13.056Z,3.94
2022-12-19T22:34:42.514Z,3.93
2022-12-19T22:37:09.157Z,4.00
2022-12-19T22:39:35.686Z,3.93
2022-12-19T22:42:02.400Z,3.84
2022-12-19T22:44:29.189Z,4.01
2022-12-19T22:46:56.137Z,4.00
2022-12-19T22:49:24.626Z,3.92
2022-12-19T22:51:53.347Z,3.75
2022-12-19T22:54:19.924Z,3.82
2022-12-19T22:56:46.540Z,4.02
2022-12-19T22:59:13.252Z,4.00
2022-12-19T23:01:40.887Z,4.00
2022-12-19T23:04:08.197Z,4.09
2022-12-19T23:06:35.539Z,3.87
2022-12-19T23:09:02.336Z,3.85
2022-12-19T23:11:30.804Z,3.99
2022-12-19T23:14:00.538Z,4.01
2022-12-19T23:16:27.209Z,3.95
2022-12-19T23:18:53.722Z,3.90
2022-12-19T23:21:21.213Z,3.97
2022-12-19T23:23:48.548Z,3.83
2022-12-19T23:26:19.245Z,3.75
2022-12-19T23:28:49.981Z,3.84
2022-12-19T23:31:16.673Z,3.83
2022-12-19T23:33:43.330Z,3.99
2022-12-19T23:36:10.846Z,4.00
2022-12-19T23:38:37.373Z,4.00
2022-12-19T23:41:07.316Z,4.06
2022-12-19T23:43:34.303Z,4.16
2022-12-19T23:46:05.186Z,4.22
2022-12-19T23:48:31.690Z,4.09
2022-12-19T23:51:01.860Z,4.11
2022-12-19T23:53:28.823Z,4.09
2022-12-19T23:55:55.450Z,3.97
2022-12-19T23:58:24.591Z,4.04
